createdAt,value
2019-04-25T00:02:36.638Z,26.27
2019-04-25T00:05:11.228Z,31.07
2019-04-25T00:07:43.778Z,39.13
2019-04-25T00:10:14.827Z,34.20
2019-04-25T00:12:45.710Z,34.37
2019-04-25T00:15:16.041Z,29.70
2019-04-25T00:17:46.343Z,32.87
2019-04-25T00:20:17.664Z,41.47
2019-04-25T00:23:06.086Z,32.63
2019-04-25T00:25:56.088Z,32.93
2019-04-25T00:28:26.406Z,36.80
2019-04-25T00:30:56.708Z,31.37
2019-04-25T00:33:26.961Z,38.63
2019-04-25T00:35:57.378Z,31.60
2019-04-25T00:38:27.692Z,31.47
2019-04-25T00:40:58.015Z,30.80
2019-04-25T00:43:28.278Z,32.43
2019-04-25T00:45:58.548Z,33.50
2019-04-25T00:48:28.906Z,35.80
2019-04-25T00:50:59.149Z,33.03
2019-04-25T00:53:29.438Z,31.77
2019-04-25T00:56:01.347Z,34.00
2019-04-25T00:58:47.326Z,32.90
2019-04-25T01:01:33.183Z,32.07
2019-04-25T01:04:03.503Z,35.10
2019-04-25T01:06:33.846Z,38.37
2019-04-25T01:09:05.847Z,29.23
2019-04-25T01:11:36.186Z,53.80
2019-04-25T01:14:06.468Z,32.03
2019-04-25T01:16:36.977Z,37.77
2019-04-25T01:19:07.267Z,30.77
2019-04-25T01:21:37.510Z,35.50
2019-04-25T01:24:07.948Z,37.90
2019-04-25T01:26:38.207Z,27.07
2019-04-25T01:29:08.563Z,38.10
2019-04-25T01:31:38.819Z,34.60
2019-04-25T01:34:10.848Z,34.90
2019-04-25T01:37:09.430Z,28.60
2019-04-25T01:39:57.287Z,30.93
2019-04-25T01:42:46.233Z,27.27
2019-04-25T01:45:16.767Z,29.57
2019-04-25T01:47:48.906Z,37.10
2019-04-25T01:50:19.181Z,40.73
2019-04-25T01:52:50.443Z,45.07
2019-04-25T01:55:21.063Z,33.07
2019-04-25T01:57:51.322Z,43.17
2019-04-25T02:00:29.263Z,29.60
2019-04-25T02:02:59.507Z,35.47
2019-04-25T02:05:30.020Z,25.70
2019-04-25T02:08:00.268Z,33.20
2019-04-25T02:10:30.533Z,30.53
2019-04-25T02:13:03.887Z,33.33
2019-04-25T02:15:35.312Z,32.10
2019-04-25T02:18:05.744Z,32.60
2019-04-25T02:20:36.030Z,41.50
2019-04-25T02:23:06.270Z,38.97
2019-04-25T02:25:36.564Z,36.50
2019-04-25T02:28:06.810Z,31.80
2019-04-25T02:30:37.199Z,38.13
2019-04-25T02:33:09.248Z,32.50
2019-04-25T02:35:42.861Z,41.33
2019-04-25T02:38:11.378Z,34.70
2019-04-25T02:40:41.656Z,40.40
2019-04-25T02:43:14.042Z,39.93
2019-04-25T02:46:06.493Z,40.73
2019-04-25T02:49:02.663Z,45.90
2019-04-25T02:51:39.896Z,34.63
2019-04-25T02:54:10.152Z,36.20
2019-04-25T02:56:40.444Z,39.90
2019-04-25T02:59:10.709Z,42.53
2019-04-25T03:01:41.194Z,37.80
2019-04-25T03:04:11.676Z,29.67
2019-04-25T03:06:41.955Z,39.33
2019-04-25T03:09:12.346Z,31.40
2019-04-25T03:11:45.203Z,40.13
2019-04-25T03:14:15.498Z,41.03
2019-04-25T03:16:45.859Z,40.80
2019-04-25T03:19:29.479Z,32.97
2019-04-25T03:22:01.551Z,45.50
2019-04-25T03:24:35.115Z,33.87
2019-04-25T03:27:06.182Z,29.43
2019-04-25T03:29:37.312Z,35.67
2019-04-25T03:32:11.801Z,32.27
2019-04-25T03:34:39.512Z,41.83
2019-04-25T03:37:09.785Z,33.83
2019-04-25T03:39:40.048Z,28.43
2019-04-25T03:42:10.399Z,39.17
2019-04-25T03:44:40.699Z,30.90
2019-04-25T03:47:13.439Z,38.43
2019-04-25T03:49:43.898Z,35.57
2019-04-25T03:52:14.359Z,28.73
2019-04-25T03:54:45.726Z,41.27
2019-04-25T03:57:16.115Z,36.07
2019-04-25T03:59:46.365Z,53.23
2019-04-25T04:02:16.656Z,32.73
2019-04-25T04:04:46.910Z,29.83
2019-04-25T04:07:17.198Z,35.20
2019-04-25T04:09:47.459Z,40.80
2019-04-25T04:12:17.740Z,31.87
2019-04-25T04:14:47.989Z,34.90
2019-04-25T04:17:37.208Z,29.77
2019-04-25T04:20:31.321Z,36.67
2019-04-25T04:23:14.069Z,36.13
2019-04-25T04:25:44.867Z,34.93
2019-04-25T04:28:16.018Z,34.97
2019-04-25T04:30:46.355Z,29.37
2019-04-25T04:33:29.464Z,33.37
2019-04-25T04:35:48.574Z,37.33
2019-04-25T04:38:18.862Z,36.60
2019-04-25T04:40:49.211Z,43.83
2019-04-25T04:43:19.490Z,33.37
2019-04-25T04:45:49.756Z,36.57
2019-04-25T04:48:20.035Z,42.73
2019-04-25T04:50:51.424Z,27.97
2019-04-25T04:53:21.694Z,33.70
2019-04-25T04:55:51.958Z,28.97
2019-04-25T04:58:24.998Z,31.07
2019-04-25T05:00:55.533Z,30.63
2019-04-25T05:03:41.549Z,32.17
2019-04-25T05:06:17.371Z,42.73
2019-04-25T05:08:50.741Z,34.20
2019-04-25T05:11:22.002Z,29.87
2019-04-25T05:13:54.041Z,34.43
2019-04-25T05:16:25.518Z,34.23
2019-04-25T05:18:55.803Z,36.90
2019-04-25T05:21:26.072Z,27.63
2019-04-25T05:23:56.451Z,33.30
2019-04-25T05:26:26.754Z,33.57
2019-04-25T05:28:57.178Z,32.33
2019-04-25T05:31:38.801Z,36.57
2019-04-25T05:34:09.199Z,43.50
2019-04-25T05:36:40.433Z,33.43
2019-04-25T05:39:11.512Z,31.77
2019-04-25T05:42:01.677Z,36.37
2019-04-25T05:44:31.944Z,37.87
2019-04-25T05:47:02.214Z,34.73
2019-04-25T05:49:34.114Z,31.30
2019-04-25T05:52:04.541Z,28.97
2019-04-25T05:54:34.979Z,28.57
2019-04-25T05:57:05.219Z,37.43
2019-04-25T05:59:36.632Z,39.83
2019-04-25T06:02:06.890Z,32.83
2019-04-25T06:04:38.274Z,40.37
2019-04-25T06:07:08.536Z,43.43
2019-04-25T06:09:57.728Z,32.90
2019-04-25T06:12:46.917Z,25.00
2019-04-25T06:15:19.811Z,34.57
2019-04-25T06:18:07.890Z,36.03
2019-04-25T06:20:38.300Z,34.77
2019-04-25T06:23:36.759Z,33.63
2019-04-25T06:26:19.096Z,32.93
2019-04-25T06:28:51.961Z,49.27
2019-04-25T06:31:13.709Z,33.43
2019-04-25T06:33:44.212Z,39.93
2019-04-25T06:36:14.578Z,25.60
2019-04-25T06:38:44.828Z,24.93
2019-04-25T06:41:15.373Z,28.97
2019-04-25T06:43:47.253Z,32.07
2019-04-25T06:46:36.448Z,30.03
2019-04-25T06:49:20.834Z,25.80
2019-04-25T06:51:52.117Z,33.57
2019-04-25T06:54:25.260Z,38.20
2019-04-25T06:56:54.321Z,38.67
2019-04-25T06:59:26.170Z,36.67
2019-04-25T07:01:56.548Z,36.97
2019-04-25T07:04:27.969Z,40.10
2019-04-25T07:07:09.750Z,32.30
2019-04-25T07:09:31.474Z,33.73
2019-04-25T07:12:03.563Z,42.17
2019-04-25T07:14:36.792Z,30.70
2019-04-25T07:17:05.997Z,24.80
2019-04-25T07:19:36.241Z,28.30
2019-04-25T07:22:06.519Z,39.40
2019-04-25T07:24:36.841Z,27.83
2019-04-25T07:27:33.031Z,27.87
2019-04-25T07:30:31.885Z,29.37
2019-04-25T07:33:08.919Z,30.77
2019-04-25T07:35:40.192Z,21.20
2019-04-25T07:38:11.520Z,23.73
2019-04-25T07:40:43.273Z,20.77
2019-04-25T07:43:15.330Z,33.23
2019-04-25T07:45:45.653Z,42.43
2019-04-25T07:48:16.580Z,30.10
2019-04-25T07:50:46.840Z,27.87
2019-04-25T07:53:17.111Z,29.40
2019-04-25T07:55:47.327Z,21.00
2019-04-25T07:58:17.581Z,30.10
2019-04-25T08:00:47.816Z,28.67
2019-04-25T08:03:18.078Z,27.93
2019-04-25T08:05:48.345Z,32.03
2019-04-25T08:08:18.721Z,34.10
2019-04-25T08:10:59.243Z,29.73
2019-04-25T08:13:34.248Z,32.87
2019-04-25T08:16:05.790Z,22.77
2019-04-25T08:18:37.033Z,20.83
2019-04-25T08:21:07.378Z,15.70
2019-04-25T08:23:38.891Z,16.20
2019-04-25T08:26:09.178Z,22.00
2019-04-25T08:28:51.923Z,17.67
2019-04-25T08:31:13.448Z,25.90
2019-04-25T08:33:46.516Z,27.73
2019-04-25T08:36:15.945Z,15.87
2019-04-25T08:38:48.058Z,17.73
2019-04-25T08:41:18.312Z,23.90
2019-04-25T08:43:48.627Z,20.53
2019-04-25T08:46:19.112Z,22.37
2019-04-25T08:49:11.025Z,19.20
2019-04-25T08:51:42.096Z,19.53
2019-04-25T08:54:41.118Z,17.40
2019-04-25T08:57:16.792Z,19.10
2019-04-25T08:59:55.961Z,14.23
2019-04-25T09:02:40.723Z,14.90
2019-04-25T09:05:37.911Z,18.67
2019-04-25T09:08:09.040Z,15.07
2019-04-25T09:10:40.165Z,23.37
2019-04-25T09:13:10.623Z,20.13
2019-04-25T09:15:41.923Z,19.90
2019-04-25T09:18:14.005Z,25.47
2019-04-25T09:20:46.624Z,18.97
2019-04-25T09:23:16.348Z,17.77
2019-04-25T09:25:47.703Z,18.97
2019-04-25T09:28:17.953Z,20.23
2019-04-25T09:30:48.228Z,12.83
2019-04-25T09:33:18.584Z,16.10
2019-04-25T09:35:48.905Z,23.07
2019-04-25T09:38:19.153Z,17.27
2019-04-25T09:40:49.491Z,20.90
2019-04-25T09:43:19.867Z,13.23
2019-04-25T09:46:03.264Z,22.23
2019-04-25T09:48:42.361Z,24.13
2019-04-25T09:51:23.612Z,20.23
2019-04-25T09:54:00.368Z,17.77
2019-04-25T09:56:36.500Z,24.50
2019-04-25T09:59:27.182Z,24.00
2019-04-25T10:01:52.821Z,19.73
2019-04-25T10:04:23.617Z,15.60
2019-04-25T10:06:53.949Z,16.23
2019-04-25T10:09:24.311Z,18.47
2019-04-25T10:11:54.847Z,15.97
2019-04-25T10:15:04.482Z,21.37
2019-04-25T10:17:34.753Z,14.90
2019-04-25T10:20:06.581Z,16.27
2019-04-25T10:22:36.739Z,18.73
2019-04-25T10:25:07.017Z,16.43
2019-04-25T10:27:37.136Z,15.67
2019-04-25T10:30:16.981Z,22.87
2019-04-25T10:32:40.010Z,19.37
2019-04-25T10:35:10.424Z,21.10
2019-04-25T10:37:41.390Z,15.60
2019-04-25T10:40:13.367Z,22.80
2019-04-25T10:42:44.863Z,25.87
2019-04-25T10:45:23.264Z,17.60
2019-04-25T10:47:49.282Z,18.73
2019-04-25T10:50:19.588Z,19.70
2019-04-25T10:52:49.733Z,22.00
2019-04-25T10:55:20.289Z,20.03
2019-04-25T10:57:51.078Z,20.87
2019-04-25T11:00:29.734Z,19.67
2019-04-25T11:03:06.516Z,22.87
2019-04-25T11:05:36.644Z,25.67
2019-04-25T11:08:06.781Z,22.57
2019-04-25T11:10:36.900Z,17.53
2019-04-25T11:13:07.021Z,20.43
2019-04-25T11:15:37.841Z,21.07
2019-04-25T11:18:07.977Z,26.23
2019-04-25T11:20:40.212Z,18.67
2019-04-25T11:23:10.368Z,24.60
2019-04-25T11:25:40.623Z,20.13
2019-04-25T11:28:11.738Z,25.10
2019-04-25T11:30:45.236Z,26.37
2019-04-25T11:33:15.060Z,23.70
2019-04-25T11:35:47.519Z,20.27
2019-04-25T11:38:23.732Z,21.80
2019-04-25T11:40:59.842Z,18.67
2019-04-25T11:43:29.980Z,21.73
2019-04-25T11:46:00.115Z,19.93
2019-04-25T11:48:30.378Z,18.83
2019-04-25T11:51:00.489Z,19.60
2019-04-25T11:53:31.052Z,15.87
2019-04-25T11:56:01.160Z,19.93
2019-04-25T11:58:31.384Z,18.97
2019-04-25T12:01:01.725Z,21.70
2019-04-25T12:03:33.492Z,15.43
2019-04-25T12:06:03.926Z,12.30
2019-04-25T12:08:34.981Z,22.27
2019-04-25T12:11:05.933Z,12.97
2019-04-25T12:13:36.327Z,13.27
2019-04-25T12:16:06.906Z,19.73
2019-04-25T12:18:37.085Z,16.77
2019-04-25T12:21:07.206Z,20.90
2019-04-25T12:23:37.518Z,17.47
2019-04-25T12:26:07.638Z,25.13
2019-04-25T12:28:37.855Z,20.73
2019-04-25T12:31:07.980Z,25.83
2019-04-25T12:33:38.207Z,26.70
2019-04-25T12:36:08.819Z,24.57
2019-04-25T12:38:39.335Z,23.20
2019-04-25T12:41:09.454Z,26.53
2019-04-25T12:43:41.595Z,16.40
2019-04-25T12:46:20.724Z,20.27
2019-04-25T12:48:51.707Z,18.53
2019-04-25T12:51:22.154Z,33.63
2019-04-25T12:53:53.942Z,27.37
2019-04-25T12:56:24.796Z,25.70
2019-04-25T12:58:55.981Z,27.97
2019-04-25T13:01:26.285Z,28.87
2019-04-25T13:03:56.430Z,33.63
2019-04-25T13:06:26.573Z,26.63
2019-04-25T13:08:56.776Z,24.97
2019-04-25T13:11:26.929Z,26.53
2019-04-25T13:13:57.086Z,34.80
2019-04-25T13:16:27.201Z,21.83
2019-04-25T13:19:09.193Z,21.60
2019-04-25T13:21:29.899Z,27.20
2019-04-25T13:24:00.774Z,32.13
2019-04-25T13:26:35.117Z,23.90
2019-04-25T13:29:31.212Z,22.47
2019-04-25T13:32:26.331Z,37.93
2019-04-25T13:34:57.160Z,28.40
2019-04-25T13:37:27.419Z,27.30
2019-04-25T13:39:58.212Z,24.57
2019-04-25T13:42:28.456Z,37.97
2019-04-25T13:44:58.628Z,31.37
2019-04-25T13:47:30.297Z,28.97
2019-04-25T13:50:00.616Z,25.90
2019-04-25T13:52:31.345Z,22.87
2019-04-25T13:55:01.551Z,25.03
2019-04-25T13:57:32.362Z,30.60
2019-04-25T14:00:04.141Z,27.33
2019-04-25T14:02:35.262Z,25.67
2019-04-25T14:05:06.834Z,20.97
2019-04-25T14:07:38.645Z,23.57
2019-04-25T14:10:08.884Z,22.37
2019-04-25T14:12:39.070Z,24.10
2019-04-25T14:15:11.050Z,27.93
2019-04-25T14:18:06.231Z,26.43
2019-04-25T14:20:42.520Z,32.27
2019-04-25T14:23:15.085Z,29.63
2019-04-25T14:25:45.791Z,24.90
2019-04-25T14:28:16.371Z,26.90
2019-04-25T14:30:46.593Z,21.00
2019-04-25T14:33:16.812Z,21.53
2019-04-25T14:35:46.946Z,33.17
2019-04-25T14:38:17.131Z,29.80
2019-04-25T14:40:47.254Z,22.47
2019-04-25T14:43:17.411Z,27.47
2019-04-25T14:45:47.533Z,24.10
2019-04-25T14:48:17.978Z,25.43
2019-04-25T14:50:48.124Z,24.83
2019-04-25T14:53:18.275Z,26.33
2019-04-25T14:56:15.209Z,30.47
2019-04-25T14:58:46.113Z,31.97
2019-04-25T15:01:18.354Z,29.10
2019-04-25T15:03:48.490Z,28.00
2019-04-25T15:06:18.652Z,32.47
2019-04-25T15:08:48.763Z,35.47
2019-04-25T15:11:19.035Z,36.63
2019-04-25T15:13:49.159Z,33.17
2019-04-25T15:16:19.339Z,27.53
2019-04-25T15:18:49.491Z,33.10
2019-04-25T15:21:19.623Z,20.57
2019-04-25T15:23:59.634Z,33.47
2019-04-25T15:26:21.566Z,33.33
2019-04-25T15:28:51.697Z,36.70
2019-04-25T15:31:21.834Z,30.00
2019-04-25T15:33:51.992Z,28.77
2019-04-25T15:36:28.541Z,29.43
2019-04-25T15:39:17.828Z,27.67
2019-04-25T15:42:08.681Z,28.77
2019-04-25T15:44:50.288Z,26.47
2019-04-25T15:47:23.965Z,33.47
2019-04-25T15:49:54.095Z,27.50
2019-04-25T15:52:24.270Z,24.30
2019-04-25T15:55:06.226Z,23.43
2019-04-25T15:57:27.061Z,27.43
2019-04-25T15:59:58.315Z,23.10
2019-04-25T16:02:28.824Z,28.63
2019-04-25T16:04:58.943Z,27.47
2019-04-25T16:07:29.180Z,32.33
2019-04-25T16:09:59.329Z,29.97
2019-04-25T16:12:29.458Z,25.70
2019-04-25T16:14:59.727Z,31.00
2019-04-25T16:17:30.685Z,22.37
2019-04-25T16:20:01.308Z,32.70
2019-04-25T16:22:32.793Z,26.60
2019-04-25T16:25:02.923Z,23.57
2019-04-25T16:27:33.145Z,26.17
2019-04-25T16:30:03.354Z,25.77
2019-04-25T16:32:34.625Z,25.77
2019-04-25T16:35:06.329Z,30.17
2019-04-25T16:37:36.865Z,34.17
2019-04-25T16:40:08.707Z,23.20
2019-04-25T16:42:39.767Z,23.67
2019-04-25T16:45:11.523Z,24.00
2019-04-25T16:47:41.933Z,23.87
2019-04-25T16:50:12.232Z,21.90
2019-04-25T16:52:42.642Z,22.43
2019-04-25T16:55:14.941Z,29.83
2019-04-25T16:57:45.071Z,25.17
2019-04-25T17:00:43.493Z,24.80
2019-04-25T17:03:18.772Z,27.13
2019-04-25T17:05:48.906Z,29.90
2019-04-25T17:08:19.120Z,30.13
2019-04-25T17:10:49.266Z,32.23
2019-04-25T17:13:19.570Z,29.77
2019-04-25T17:16:00.911Z,25.63
2019-04-25T17:18:41.710Z,23.67
2019-04-25T17:21:12.001Z,28.47
2019-04-25T17:23:42.151Z,34.40
2019-04-25T17:26:12.575Z,27.80
2019-04-25T17:28:44.395Z,35.57
2019-04-25T17:31:36.635Z,27.60
2019-04-25T17:34:17.815Z,29.10
2019-04-25T17:37:03.653Z,26.30
2019-04-25T17:39:37.498Z,25.60
2019-04-25T17:42:07.733Z,33.47
2019-04-25T17:44:38.370Z,30.67
2019-04-25T17:47:08.611Z,32.43
2019-04-25T17:49:39.406Z,26.27
2019-04-25T17:52:09.633Z,26.40
2019-04-25T17:54:39.766Z,29.53
2019-04-25T17:57:09.899Z,40.23
2019-04-25T17:59:40.139Z,26.33
2019-04-25T18:02:10.352Z,29.10
2019-04-25T18:04:40.486Z,29.43
2019-04-25T18:07:10.967Z,29.67
2019-04-25T18:09:41.100Z,25.90
2019-04-25T18:12:11.246Z,26.27
2019-04-25T18:14:41.418Z,36.43
2019-04-25T18:17:11.589Z,36.17
2019-04-25T18:19:46.055Z,36.17
2019-04-25T18:22:23.192Z,28.47
2019-04-25T18:25:15.379Z,26.73
2019-04-25T18:28:07.243Z,29.87
2019-04-25T18:30:37.465Z,30.77
2019-04-25T18:33:26.513Z,27.53
2019-04-25T18:36:06.334Z,36.23
2019-04-25T18:38:58.465Z,28.13
2019-04-25T18:41:39.788Z,32.37
2019-04-25T18:44:10.215Z,36.93
2019-04-25T18:46:42.745Z,31.83
2019-04-25T18:49:12.873Z,40.67
2019-04-25T18:51:55.116Z,27.83
2019-04-25T18:54:31.793Z,41.03
2019-04-25T18:57:18.682Z,29.97
2019-04-25T18:59:54.241Z,35.53
2019-04-25T19:02:49.148Z,51.00
2019-04-25T19:05:32.716Z,27.70
2019-04-25T19:08:02.864Z,26.33
2019-04-25T19:10:32.986Z,25.70
2019-04-25T19:13:12.563Z,25.80
2019-04-25T19:15:35.178Z,30.97
2019-04-25T19:18:07.401Z,28.33
2019-04-25T19:20:38.977Z,31.50
2019-04-25T19:23:10.040Z,30.70
2019-04-25T19:25:40.356Z,35.37
2019-04-25T19:28:10.710Z,30.93
2019-04-25T19:30:41.276Z,33.43
2019-04-25T19:33:11.412Z,35.23
2019-04-25T19:35:41.722Z,31.00
2019-04-25T19:38:14.699Z,32.10
2019-04-25T19:41:04.019Z,31.47
2019-04-25T19:43:54.228Z,33.17
2019-04-25T19:46:38.640Z,32.77
2019-04-25T19:49:10.516Z,37.67
2019-04-25T19:51:47.242Z,42.40
2019-04-25T19:54:18.539Z,35.07
2019-04-25T19:56:49.618Z,36.77
2019-04-25T19:59:19.791Z,33.10
2019-04-25T20:01:51.388Z,32.07
2019-04-25T20:04:44.697Z,32.93
2019-04-25T20:07:34.184Z,35.67
2019-04-25T20:10:20.851Z,36.20
2019-04-25T20:12:53.366Z,33.93
2019-04-25T20:15:23.758Z,38.70
2019-04-25T20:17:54.214Z,44.50
2019-04-25T20:20:25.469Z,41.83
2019-04-25T20:22:55.615Z,43.17
2019-04-25T20:25:25.805Z,39.77
2019-04-25T20:27:56.154Z,35.57
2019-04-25T20:30:26.374Z,32.87
2019-04-25T20:32:56.454Z,35.20
2019-04-25T20:35:26.597Z,35.90
2019-04-25T20:37:56.731Z,35.67
2019-04-25T20:40:26.853Z,40.03
2019-04-25T20:42:56.989Z,36.60
2019-04-25T20:45:27.124Z,35.70
2019-04-25T20:47:57.264Z,40.00
2019-04-25T20:50:27.397Z,39.23
2019-04-25T20:52:57.523Z,39.50
2019-04-25T20:55:27.662Z,39.73
2019-04-25T20:57:57.905Z,37.77
2019-04-25T21:00:42.882Z,37.30
2019-04-25T21:03:13.016Z,33.87
2019-04-25T21:05:44.011Z,41.33
2019-04-25T21:08:14.150Z,34.43
2019-04-25T21:10:44.291Z,37.83
2019-04-25T21:13:18.908Z,34.07
2019-04-25T21:15:58.549Z,35.07
2019-04-25T21:18:53.486Z,34.93
2019-04-25T21:21:23.656Z,31.87
2019-04-25T21:23:53.768Z,36.83
2019-04-25T21:26:23.905Z,35.00
2019-04-25T21:28:54.349Z,32.33
2019-04-25T21:31:24.611Z,31.70
2019-04-25T21:33:55.282Z,31.90
2019-04-25T21:36:25.828Z,37.23
2019-04-25T21:38:56.124Z,32.50
2019-04-25T21:41:45.427Z,32.63
2019-04-25T21:44:17.690Z,32.17
2019-04-25T21:46:47.631Z,30.53
2019-04-25T21:49:17.954Z,38.23
2019-04-25T21:51:48.095Z,29.83
2019-04-25T21:54:18.266Z,33.40
2019-04-25T21:56:48.712Z,30.93
2019-04-25T21:59:19.244Z,31.33
2019-04-25T22:01:49.546Z,33.83
2019-04-25T22:04:21.307Z,38.93
2019-04-25T22:06:51.706Z,34.40
2019-04-25T22:09:22.894Z,32.17
2019-04-25T22:11:53.414Z,35.63
2019-04-25T22:14:24.785Z,28.13
2019-04-25T22:16:55.450Z,25.70
2019-04-25T22:19:25.890Z,30.97
2019-04-25T22:21:57.352Z,28.20
2019-04-25T22:24:27.890Z,32.20
2019-04-25T22:27:00.920Z,30.70
2019-04-25T22:29:32.450Z,29.50
2019-04-25T22:32:14.844Z,25.87
2019-04-25T22:34:55.050Z,27.47
2019-04-25T22:37:25.172Z,27.00
2019-04-25T22:39:55.486Z,30.97
2019-04-25T22:42:25.612Z,30.83
2019-04-25T22:44:55.748Z,31.03
2019-04-25T22:47:25.879Z,31.70
2019-04-25T22:49:55.979Z,30.50
2019-04-25T22:52:26.307Z,28.93
2019-04-25T22:54:56.460Z,28.40
2019-04-25T22:57:26.749Z,29.50
2019-04-25T22:59:56.858Z,29.20
2019-04-25T23:02:45.951Z,28.57
2019-04-25T23:05:26.630Z,26.37
2019-04-25T23:07:57.052Z,32.90
2019-04-25T23:10:27.428Z,27.63
2019-04-25T23:12:57.560Z,27.00
2019-04-25T23:15:27.675Z,30.70
2019-04-25T23:17:58.092Z,29.73
2019-04-25T23:20:28.192Z,25.43
2019-04-25T23:22:58.324Z,30.77
2019-04-25T23:25:34.518Z,32.80
2019-04-25T23:28:15.567Z,30.97
2019-04-25T23:31:05.398Z,29.10
2019-04-25T23:33:36.526Z,29.37
2019-04-25T23:36:07.057Z,30.47
2019-04-25T23:38:37.274Z,31.27
2019-04-25T23:41:07.679Z,34.53
2019-04-25T23:43:37.804Z,31.73
2019-04-25T23:46:08.251Z,29.73
2019-04-25T23:48:38.743Z,25.00
2019-04-25T23:51:09.026Z,28.10
2019-04-25T23:53:39.372Z,25.67
2019-04-25T23:56:09.478Z,27.93
2019-04-25T23:58:39.894Z,24.47
